sensor_id;sensor_type;location;lat;lon;timestamp;temperature;humidity
780;DHT22;373;49.342;8.146;2023-04-24T00:01:07;10.30;99.90
780;DHT22;373;49.342;8.146;2023-04-24T00:03:34;10.20;99.90
780;DHT22;373;49.342;8.146;2023-04-24T00:06:02;10.30;99.90
780;DHT22;373;49.342;8.146;2023-04-24T00:08:29;10.30;99.90
780;DHT22;373;49.342;8.146;2023-04-24T00:10:56;10.30;99.90
780;DHT22;373;49.342;8.146;2023-04-24T00:13:23;10.20;99.90
780;DHT22;373;49.342;8.146;2023-04-24T00:15:52;10.30;99.90
780;DHT22;373;49.342;8.146;2023-04-24T00:18:19;10.40;99.90
780;DHT22;373;49.342;8.146;2023-04-24T00:20:46;10.50;99.90
780;DHT22;373;49.342;8.146;2023-04-24T00:23:13;10.70;99.90
780;DHT22;373;49.342;8.146;2023-04-24T00:25:40;10.70;99.90
780;DHT22;373;49.342;8.146;2023-04-24T00:28:07;10.90;99.90
780;DHT22;373;49.342;8.146;2023-04-24T00:30:34;11.10;99.90
780;DHT22;373;49.342;8.146;2023-04-24T00:33:03;11.30;77.60
780;DHT22;373;49.342;8.146;2023-04-24T00:35:30;11.20;83.00
780;DHT22;373;49.342;8.146;2023-04-24T00:37:57;11.20;66.00
780;DHT22;373;49.342;8.146;2023-04-24T00:40:24;11.30;58.70
780;DHT22;373;49.342;8.146;2023-04-24T00:42:51;11.30;58.40
780;DHT22;373;49.342;8.146;2023-04-24T00:45:19;11.40;40.40
780;DHT22;373;49.342;8.146;2023-04-24T00:47:46;11.40;19.80
780;DHT22;373;49.342;8.146;2023-04-24T00:50:16;11.50;1.00
780;DHT22;373;49.342;8.146;2023-04-24T00:52:43;11.50;1.00
780;DHT22;373;49.342;8.146;2023-04-24T00:55:10;11.60;1.00
780;DHT22;373;49.342;8.146;2023-04-24T00:57:38;11.60;1.00
780;DHT22;373;49.342;8.146;2023-04-24T01:00:07;11.50;1.00
780;DHT22;373;49.342;8.146;2023-04-24T01:02:38;11.30;38.90
780;DHT22;373;49.342;8.146;2023-04-24T01:05:10;11.20;43.40
780;DHT22;373;49.342;8.146;2023-04-24T01:07:40;11.10;56.50
780;DHT22;373;49.342;8.146;2023-04-24T01:10:10;11.40;44.00
780;DHT22;373;49.342;8.146;2023-04-24T01:12:37;11.20;63.90
780;DHT22;373;49.342;8.146;2023-04-24T01:15:05;11.30;59.40
780;DHT22;373;49.342;8.146;2023-04-24T01:17:34;11.10;92.30
780;DHT22;373;49.342;8.146;2023-04-24T01:20:02;11.10;99.90
780;DHT22;373;49.342;8.146;2023-04-24T01:22:33;11.10;99.90
780;DHT22;373;49.342;8.146;2023-04-24T01:25:00;11.00;99.90
780;DHT22;373;49.342;8.146;2023-04-24T01:27:30;11.10;99.90
780;DHT22;373;49.342;8.146;2023-04-24T01:29:57;11.20;99.90
780;DHT22;373;49.342;8.146;2023-04-24T01:32:24;11.10;99.90
780;DHT22;373;49.342;8.146;2023-04-24T01:34:51;11.20;99.90
780;DHT22;373;49.342;8.146;2023-04-24T01:37:18;11.30;99.90
780;DHT22;373;49.342;8.146;2023-04-24T01:39:47;11.20;99.90
780;DHT22;373;49.342;8.146;2023-04-24T01:42:14;11.10;99.90
780;DHT22;373;49.342;8.146;2023-04-24T01:44:41;11.10;99.90
780;DHT22;373;49.342;8.146;2023-04-24T01:47:09;11.40;99.90
780;DHT22;373;49.342;8.146;2023-04-24T01:49:37;11.30;99.70
780;DHT22;373;49.342;8.146;2023-04-24T01:52:05;11.30;99.90
780;DHT22;373;49.342;8.146;2023-04-24T01:54:32;11.20;99.90
780;DHT22;373;49.342;8.146;2023-04-24T01:57:00;11.30;99.90
780;DHT22;373;49.342;8.146;2023-04-24T01:59:28;11.20;99.90
780;DHT22;373;49.342;8.146;2023-04-24T02:01:56;11.20;99.90
780;DHT22;373;49.342;8.146;2023-04-24T02:04:23;11.20;99.90
780;DHT22;373;49.342;8.146;2023-04-24T02:06:50;11.10;99.90
780;DHT22;373;49.342;8.146;2023-04-24T02:09:17;11.20;99.90
780;DHT22;373;49.342;8.146;2023-04-24T02:11:44;11.10;99.90
780;DHT22;373;49.342;8.146;2023-04-24T02:14:13;11.00;99.90
780;DHT22;373;49.342;8.146;2023-04-24T02:16:40;11.10;99.90
780;DHT22;373;49.342;8.146;2023-04-24T02:19:07;11.00;99.90
780;DHT22;373;49.342;8.146;2023-04-24T02:21:34;11.00;99.90
780;DHT22;373;49.342;8.146;2023-04-24T02:24:01;11.10;99.90
780;DHT22;373;49.342;8.146;2023-04-24T02:26:28;11.30;99.90
780;DHT22;373;49.342;8.146;2023-04-24T02:28:57;11.30;99.90
780;DHT22;373;49.342;8.146;2023-04-24T02:31:25;11.50;99.90
780;DHT22;373;49.342;8.146;2023-04-24T02:33:52;11.30;1.00
780;DHT22;373;49.342;8.146;2023-04-24T02:36:20;11.30;1.00
780;DHT22;373;49.342;8.146;2023-04-24T02:38:48;11.30;1.00
780;DHT22;373;49.342;8.146;2023-04-24T02:41:15;11.20;1.00
780;DHT22;373;49.342;8.146;2023-04-24T02:43:42;11.20;1.00
780;DHT22;373;49.342;8.146;2023-04-24T02:46:09;11.10;1.00
780;DHT22;373;49.342;8.146;2023-04-24T02:48:37;11.00;1.00
780;DHT22;373;49.342;8.146;2023-04-24T02:51:05;11.00;1.00
780;DHT22;373;49.342;8.146;2023-04-24T02:53:33;11.00;1.00
780;DHT22;373;49.342;8.146;2023-04-24T02:56:00;11.00;1.00
780;DHT22;373;49.342;8.146;2023-04-24T02:58:27;11.00;1.00
780;DHT22;373;49.342;8.146;2023-04-24T03:00:54;11.00;1.00
780;DHT22;373;49.342;8.146;2023-04-24T03:03:22;11.00;1.00
780;DHT22;373;49.342;8.146;2023-04-24T03:05:50;10.90;1.00
780;DHT22;373;49.342;8.146;2023-04-24T03:08:18;11.00;1.00
780;DHT22;373;49.342;8.146;2023-04-24T03:10:45;11.00;1.00
780;DHT22;373;49.342;8.146;2023-04-24T03:13:15;11.00;1.00
780;DHT22;373;49.342;8.146;2023-04-24T03:15:43;10.90;1.00
780;DHT22;373;49.342;8.146;2023-04-24T03:18:10;10.90;1.00
780;DHT22;373;49.342;8.146;2023-04-24T03:20:37;10.90;99.90
780;DHT22;373;49.342;8.146;2023-04-24T03:23:06;10.90;99.90
780;DHT22;373;49.342;8.146;2023-04-24T03:25:34;10.90;1.00
780;DHT22;373;49.342;8.146;2023-04-24T03:28:02;10.80;99.90
780;DHT22;373;49.342;8.146;2023-04-24T03:30:38;10.70;99.90
780;DHT22;373;49.342;8.146;2023-04-24T03:33:06;10.70;99.90
780;DHT22;373;49.342;8.146;2023-04-24T03:35:37;10.60;99.90
780;DHT22;373;49.342;8.146;2023-04-24T03:38:10;10.50;1.00
780;DHT22;373;49.342;8.146;2023-04-24T03:40:59;10.50;1.00
780;DHT22;373;49.342;8.146;2023-04-24T03:43:48;10.40;99.90
780;DHT22;373;49.342;8.146;2023-04-24T03:46:16;10.50;1.00
780;DHT22;373;49.342;8.146;2023-04-24T03:48:56;10.30;1.00
780;DHT22;373;49.342;8.146;2023-04-24T03:51:28;10.40;1.00
780;DHT22;373;49.342;8.146;2023-04-24T03:54:03;10.30;1.00
780;DHT22;373;49.342;8.146;2023-04-24T03:56:33;10.20;1.00
780;DHT22;373;49.342;8.146;2023-04-24T03:59:01;10.20;99.90
780;DHT22;373;49.342;8.146;2023-04-24T04:01:29;10.20;99.90
780;DHT22;373;49.342;8.146;2023-04-24T04:04:04;10.30;99.90
780;DHT22;373;49.342;8.146;2023-04-24T04:06:31;10.20;99.90
780;DHT22;373;49.342;8.146;2023-04-24T04:09:00;10.40;83.70
780;DHT22;373;49.342;8.146;2023-04-24T04:11:29;10.20;1.00
780;DHT22;373;49.342;8.146;2023-04-24T04:13:56;10.10;1.00
780;DHT22;373;49.342;8.146;2023-04-24T04:16:24;10.20;99.90
780;DHT22;373;49.342;8.146;2023-04-24T04:18:56;10.10;99.90
780;DHT22;373;49.342;8.146;2023-04-24T04:21:24;10.40;1.00
780;DHT22;373;49.342;8.146;2023-04-24T04:23:59;10.20;99.90
780;DHT22;373;49.342;8.146;2023-04-24T04:26:34;10.20;99.90
780;DHT22;373;49.342;8.146;2023-04-24T04:29:04;10.20;1.00
780;DHT22;373;49.342;8.146;2023-04-24T04:31:34;10.40;1.00
780;DHT22;373;49.342;8.146;2023-04-24T04:34:06;10.30;1.00
780;DHT22;373;49.342;8.146;2023-04-24T04:36:34;10.20;99.90
780;DHT22;373;49.342;8.146;2023-04-24T04:39:13;10.30;1.00
780;DHT22;373;49.342;8.146;2023-04-24T04:41:57;10.30;99.90
780;DHT22;373;49.342;8.146;2023-04-24T04:44:32;10.40;1.00
780;DHT22;373;49.342;8.146;2023-04-24T04:47:13;10.40;1.00
780;DHT22;373;49.342;8.146;2023-04-24T04:49:44;10.40;1.00
780;DHT22;373;49.342;8.146;2023-04-24T04:52:18;10.40;1.00
780;DHT22;373;49.342;8.146;2023-04-24T04:54:50;10.50;47.80
780;DHT22;373;49.342;8.146;2023-04-24T04:57:19;10.50;1.00
780;DHT22;373;49.342;8.146;2023-04-24T04:59:48;10.70;1.00
780;DHT22;373;49.342;8.146;2023-04-24T05:02:26;10.80;99.90
780;DHT22;373;49.342;8.146;2023-04-24T05:04:53;10.80;1.00
780;DHT22;373;49.342;8.146;2023-04-24T05:07:20;10.80;99.90
780;DHT22;373;49.342;8.146;2023-04-24T05:09:50;10.70;98.40
780;DHT22;373;49.342;8.146;2023-04-24T05:12:20;10.80;99.90
780;DHT22;373;49.342;8.146;2023-04-24T05:14:51;11.00;1.00
780;DHT22;373;49.342;8.146;2023-04-24T05:17:19;11.20;1.00
780;DHT22;373;49.342;8.146;2023-04-24T05:19:46;11.00;99.90
780;DHT22;373;49.342;8.146;2023-04-24T05:22:15;10.70;1.00
780;DHT22;373;49.342;8.146;2023-04-24T05:24:48;10.80;99.90
780;DHT22;373;49.342;8.146;2023-04-24T05:27:40;10.80;1.00
780;DHT22;373;49.342;8.146;2023-04-24T05:30:13;10.80;1.00
780;DHT22;373;49.342;8.146;2023-04-24T05:32:41;10.80;99.90
780;DHT22;373;49.342;8.146;2023-04-24T05:35:08;10.90;1.00
780;DHT22;373;49.342;8.146;2023-04-24T05:37:36;11.20;99.90
780;DHT22;373;49.342;8.146;2023-04-24T05:40:04;11.20;24.00
780;DHT22;373;49.342;8.146;2023-04-24T05:42:31;11.00;99.90
780;DHT22;373;49.342;8.146;2023-04-24T05:44:59;10.60;1.00
780;DHT22;373;49.342;8.146;2023-04-24T05:47:27;10.70;1.00
780;DHT22;373;49.342;8.146;2023-04-24T05:49:54;10.90;1.00
780;DHT22;373;49.342;8.146;2023-04-24T05:52:21;10.80;1.00
780;DHT22;373;49.342;8.146;2023-04-24T05:54:49;10.70;1.00
780;DHT22;373;49.342;8.146;2023-04-24T05:57:21;10.70;1.00
780;DHT22;373;49.342;8.146;2023-04-24T05:59:52;10.50;1.00
780;DHT22;373;49.342;8.146;2023-04-24T06:02:22;10.40;1.00
780;DHT22;373;49.342;8.146;2023-04-24T06:04:50;10.10;1.00
780;DHT22;373;49.342;8.146;2023-04-24T06:07:17;10.10;1.00
780;DHT22;373;49.342;8.146;2023-04-24T06:09:44;10.10;1.00
780;DHT22;373;49.342;8.146;2023-04-24T06:12:12;10.10;1.00
780;DHT22;373;49.342;8.146;2023-04-24T06:14:51;10.20;5.20
780;DHT22;373;49.342;8.146;2023-04-24T06:17:38;10.10;1.00
780;DHT22;373;49.342;8.146;2023-04-24T06:20:07;9.90;1.00
780;DHT22;373;49.342;8.146;2023-04-24T06:22:34;9.70;1.00
780;DHT22;373;49.342;8.146;2023-04-24T06:25:03;9.50;1.00
780;DHT22;373;49.342;8.146;2023-04-24T06:27:30;9.60;1.00
780;DHT22;373;49.342;8.146;2023-04-24T06:29:57;9.60;1.00
780;DHT22;373;49.342;8.146;2023-04-24T06:32:25;9.60;1.00
780;DHT22;373;49.342;8.146;2023-04-24T06:34:54;9.70;1.00
780;DHT22;373;49.342;8.146;2023-04-24T06:37:21;9.70;1.00
780;DHT22;373;49.342;8.146;2023-04-24T06:39:48;9.80;1.00
780;DHT22;373;49.342;8.146;2023-04-24T06:42:15;9.90;1.00
780;DHT22;373;49.342;8.146;2023-04-24T06:44:43;9.90;1.00
780;DHT22;373;49.342;8.146;2023-04-24T06:47:11;9.90;1.00
780;DHT22;373;49.342;8.146;2023-04-24T06:49:39;10.00;1.00
780;DHT22;373;49.342;8.146;2023-04-24T06:52:08;10.10;1.00
780;DHT22;373;49.342;8.146;2023-04-24T06:54:35;10.20;1.00
780;DHT22;373;49.342;8.146;2023-04-24T06:57:02;10.00;1.00
780;DHT22;373;49.342;8.146;2023-04-24T06:59:30;9.90;1.00
780;DHT22;373;49.342;8.146;2023-04-24T07:01:57;10.10;99.90
780;DHT22;373;49.342;8.146;2023-04-24T07:04:24;10.60;1.00
780;DHT22;373;49.342;8.146;2023-04-24T07:06:51;11.10;1.00
780;DHT22;373;49.342;8.146;2023-04-24T07:09:25;11.40;99.90
780;DHT22;373;49.342;8.146;2023-04-24T07:11:53;11.40;99.90
780;DHT22;373;49.342;8.146;2023-04-24T07:14:20;11.70;99.90
780;DHT22;373;49.342;8.146;2023-04-24T07:16:48;12.10;99.90
780;DHT22;373;49.342;8.146;2023-04-24T07:19:15;12.30;99.90
780;DHT22;373;49.342;8.146;2023-04-24T07:21:42;12.40;99.90
780;DHT22;373;49.342;8.146;2023-04-24T07:24:09;12.80;99.90
780;DHT22;373;49.342;8.146;2023-04-24T07:26:38;13.00;1.00
780;DHT22;373;49.342;8.146;2023-04-24T07:29:06;13.20;99.90
780;DHT22;373;49.342;8.146;2023-04-24T07:31:33;13.10;99.90
780;DHT22;373;49.342;8.146;2023-04-24T07:34:00;12.90;99.90
780;DHT22;373;49.342;8.146;2023-04-24T07:36:27;13.10;1.00
780;DHT22;373;49.342;8.146;2023-04-24T07:38:55;13.20;4.40
780;DHT22;373;49.342;8.146;2023-04-24T07:41:22;13.30;1.00
780;DHT22;373;49.342;8.146;2023-04-24T07:43:51;13.60;99.90
780;DHT22;373;49.342;8.146;2023-04-24T07:46:19;13.40;99.90
780;DHT22;373;49.342;8.146;2023-04-24T07:48:46;13.80;1.00
780;DHT22;373;49.342;8.146;2023-04-24T07:51:14;13.40;99.90
780;DHT22;373;49.342;8.146;2023-04-24T07:53:42;13.10;99.90
780;DHT22;373;49.342;8.146;2023-04-24T07:56:09;13.00;99.90
780;DHT22;373;49.342;8.146;2023-04-24T07:58:36;13.10;99.90
780;DHT22;373;49.342;8.146;2023-04-24T08:01:04;13.00;99.90
780;DHT22;373;49.342;8.146;2023-04-24T08:03:31;13.10;99.90
780;DHT22;373;49.342;8.146;2023-04-24T08:05:58;12.60;99.90
780;DHT22;373;49.342;8.146;2023-04-24T08:08:26;12.60;99.90
780;DHT22;373;49.342;8.146;2023-04-24T08:10:53;13.30;99.90
780;DHT22;373;49.342;8.146;2023-04-24T08:13:20;13.20;99.90
780;DHT22;373;49.342;8.146;2023-04-24T08:15:47;13.60;99.90
780;DHT22;373;49.342;8.146;2023-04-24T08:18:16;13.30;99.90
780;DHT22;373;49.342;8.146;2023-04-24T08:20:43;12.80;99.90
780;DHT22;373;49.342;8.146;2023-04-24T08:23:11;12.30;99.90
780;DHT22;373;49.342;8.146;2023-04-24T08:25:38;12.00;99.90
780;DHT22;373;49.342;8.146;2023-04-24T08:28:06;12.10;99.90
780;DHT22;373;49.342;8.146;2023-04-24T08:30:33;12.80;99.90
780;DHT22;373;49.342;8.146;2023-04-24T08:33:00;12.70;99.90
780;DHT22;373;49.342;8.146;2023-04-24T08:35:29;12.70;99.90
780;DHT22;373;49.342;8.146;2023-04-24T08:37:56;12.90;99.90
780;DHT22;373;49.342;8.146;2023-04-24T08:40:27;13.50;99.90
780;DHT22;373;49.342;8.146;2023-04-24T08:42:55;13.60;1.00
780;DHT22;373;49.342;8.146;2023-04-24T08:45:23;13.70;1.00
780;DHT22;373;49.342;8.146;2023-04-24T08:47:52;13.80;1.00
780;DHT22;373;49.342;8.146;2023-04-24T08:50:20;13.30;1.00
780;DHT22;373;49.342;8.146;2023-04-24T08:52:52;13.30;13.20
780;DHT22;373;49.342;8.146;2023-04-24T08:55:19;12.90;1.00
780;DHT22;373;49.342;8.146;2023-04-24T08:57:51;12.90;99.90
780;DHT22;373;49.342;8.146;2023-04-24T09:00:20;12.50;99.90
780;DHT22;373;49.342;8.146;2023-04-24T09:02:49;12.60;99.90
780;DHT22;373;49.342;8.146;2023-04-24T09:05:17;12.70;99.90
780;DHT22;373;49.342;8.146;2023-04-24T09:07:46;12.50;99.90
780;DHT22;373;49.342;8.146;2023-04-24T09:10:17;12.70;99.90
780;DHT22;373;49.342;8.146;2023-04-24T09:12:44;12.90;79.70
780;DHT22;373;49.342;8.146;2023-04-24T09:15:11;13.70;99.90
780;DHT22;373;49.342;8.146;2023-04-24T09:17:39;13.70;1.00
780;DHT22;373;49.342;8.146;2023-04-24T09:20:07;13.20;1.00
780;DHT22;373;49.342;8.146;2023-04-24T09:22:35;13.30;1.00
780;DHT22;373;49.342;8.146;2023-04-24T09:25:03;13.70;1.00
780;DHT22;373;49.342;8.146;2023-04-24T09:27:33;14.20;1.00
780;DHT22;373;49.342;8.146;2023-04-24T09:30:01;14.80;1.00
780;DHT22;373;49.342;8.146;2023-04-24T09:32:28;14.40;1.00
780;DHT22;373;49.342;8.146;2023-04-24T09:35:10;14.10;1.00
780;DHT22;373;49.342;8.146;2023-04-24T09:37:38;13.70;1.00
780;DHT22;373;49.342;8.146;2023-04-24T09:40:12;13.50;1.00
780;DHT22;373;49.342;8.146;2023-04-24T09:42:43;13.40;1.00
780;DHT22;373;49.342;8.146;2023-04-24T09:45:11;12.90;1.00
780;DHT22;373;49.342;8.146;2023-04-24T09:47:39;12.00;99.90
780;DHT22;373;49.342;8.146;2023-04-24T09:50:10;12.10;1.00
780;DHT22;373;49.342;8.146;2023-04-24T09:52:40;12.10;1.00
780;DHT22;373;49.342;8.146;2023-04-24T09:55:16;12.10;1.00
780;DHT22;373;49.342;8.146;2023-04-24T09:57:52;11.90;1.00
780;DHT22;373;49.342;8.146;2023-04-24T10:00:24;11.50;1.00
780;DHT22;373;49.342;8.146;2023-04-24T10:02:55;11.60;99.90
780;DHT22;373;49.342;8.146;2023-04-24T10:05:28;11.50;1.00
780;DHT22;373;49.342;8.146;2023-04-24T10:08:03;11.70;99.90
780;DHT22;373;49.342;8.146;2023-04-24T10:10:30;11.80;1.00
780;DHT22;373;49.342;8.146;2023-04-24T10:12:59;11.90;99.90
780;DHT22;373;49.342;8.146;2023-04-24T10:15:26;11.90;1.00
780;DHT22;373;49.342;8.146;2023-04-24T10:17:53;11.90;99.90
780;DHT22;373;49.342;8.146;2023-04-24T10:20:22;11.70;11.60
780;DHT22;373;49.342;8.146;2023-04-24T10:22:50;11.70;1.00
780;DHT22;373;49.342;8.146;2023-04-24T10:25:19;11.90;99.90
780;DHT22;373;49.342;8.146;2023-04-24T10:27:48;12.00;1.00
780;DHT22;373;49.342;8.146;2023-04-24T10:30:17;12.30;1.00
780;DHT22;373;49.342;8.146;2023-04-24T10:32:45;12.40;99.90
780;DHT22;373;49.342;8.146;2023-04-24T10:35:13;12.20;1.00
780;DHT22;373;49.342;8.146;2023-04-24T10:37:44;12.40;1.00
780;DHT22;373;49.342;8.146;2023-04-24T10:40:17;12.40;1.00
780;DHT22;373;49.342;8.146;2023-04-24T10:42:47;12.70;1.00
780;DHT22;373;49.342;8.146;2023-04-24T10:45:19;12.90;1.00
780;DHT22;373;49.342;8.146;2023-04-24T10:47:52;13.60;1.00
780;DHT22;373;49.342;8.146;2023-04-24T10:50:19;13.70;72.10
780;DHT22;373;49.342;8.146;2023-04-24T10:52:46;13.00;1.00
780;DHT22;373;49.342;8.146;2023-04-24T10:55:14;12.90;99.90
780;DHT22;373;49.342;8.146;2023-04-24T10:58:02;13.20;1.00
780;DHT22;373;49.342;8.146;2023-04-24T11:00:31;13.70;1.00
780;DHT22;373;49.342;8.146;2023-04-24T11:02:58;14.20;99.90
780;DHT22;373;49.342;8.146;2023-04-24T11:05:50;14.60;1.00
780;DHT22;373;49.342;8.146;2023-04-24T11:08:24;15.00;1.00
780;DHT22;373;49.342;8.146;2023-04-24T11:10:57;15.60;1.00
780;DHT22;373;49.342;8.146;2023-04-24T11:13:25;15.50;1.00
780;DHT22;373;49.342;8.146;2023-04-24T11:16:16;15.80;1.00
780;DHT22;373;49.342;8.146;2023-04-24T11:18:50;15.40;99.90
780;DHT22;373;49.342;8.146;2023-04-24T11:21:20;15.60;99.90
780;DHT22;373;49.342;8.146;2023-04-24T11:23:49;14.50;99.90
780;DHT22;373;49.342;8.146;2023-04-24T11:26:22;14.50;1.00
780;DHT22;373;49.342;8.146;2023-04-24T11:28:52;14.80;99.90
780;DHT22;373;49.342;8.146;2023-04-24T11:31:37;15.40;1.00
780;DHT22;373;49.342;8.146;2023-04-24T11:34:09;14.80;99.90
780;DHT22;373;49.342;8.146;2023-04-24T11:36:36;14.70;99.90
780;DHT22;373;49.342;8.146;2023-04-24T11:39:03;14.90;99.90
780;DHT22;373;49.342;8.146;2023-04-24T11:41:31;14.60;99.90
780;DHT22;373;49.342;8.146;2023-04-24T11:43:58;14.50;99.90
780;DHT22;373;49.342;8.146;2023-04-24T11:46:27;14.40;99.90
780;DHT22;373;49.342;8.146;2023-04-24T11:48:57;14.30;99.90
780;DHT22;373;49.342;8.146;2023-04-24T11:51:24;14.00;99.90
780;DHT22;373;49.342;8.146;2023-04-24T11:53:52;14.20;99.90
780;DHT22;373;49.342;8.146;2023-04-24T11:56:19;14.20;99.90
780;DHT22;373;49.342;8.146;2023-04-24T11:58:47;14.60;99.90
780;DHT22;373;49.342;8.146;2023-04-24T12:01:15;14.70;99.90
780;DHT22;373;49.342;8.146;2023-04-24T12:03:42;14.80;99.90
780;DHT22;373;49.342;8.146;2023-04-24T12:06:15;14.20;99.90
780;DHT22;373;49.342;8.146;2023-04-24T12:08:42;14.10;99.90
780;DHT22;373;49.342;8.146;2023-04-24T12:11:15;13.90;99.90
780;DHT22;373;49.342;8.146;2023-04-24T12:13:43;13.60;99.90
780;DHT22;373;49.342;8.146;2023-04-24T12:16:11;13.30;99.90
780;DHT22;373;49.342;8.146;2023-04-24T12:18:42;13.30;1.00
780;DHT22;373;49.342;8.146;2023-04-24T12:21:18;13.30;99.90
780;DHT22;373;49.342;8.146;2023-04-24T12:23:46;13.50;1.00
780;DHT22;373;49.342;8.146;2023-04-24T12:26:16;13.40;1.00
780;DHT22;373;49.342;8.146;2023-04-24T12:28:47;13.50;1.00
780;DHT22;373;49.342;8.146;2023-04-24T12:31:15;14.00;99.90
780;DHT22;373;49.342;8.146;2023-04-24T12:33:42;14.20;99.90
780;DHT22;373;49.342;8.146;2023-04-24T12:36:10;14.40;99.90
780;DHT22;373;49.342;8.146;2023-04-24T12:38:43;14.90;99.90
780;DHT22;373;49.342;8.146;2023-04-24T12:41:13;14.30;99.90
780;DHT22;373;49.342;8.146;2023-04-24T12:43:51;14.50;99.90
780;DHT22;373;49.342;8.146;2023-04-24T12:46:19;14.90;99.90
780;DHT22;373;49.342;8.146;2023-04-24T12:48:46;15.60;99.90
780;DHT22;373;49.342;8.146;2023-04-24T12:51:13;16.10;99.90
780;DHT22;373;49.342;8.146;2023-04-24T12:53:42;15.80;99.90
780;DHT22;373;49.342;8.146;2023-04-24T12:56:09;15.30;99.90
780;DHT22;373;49.342;8.146;2023-04-24T12:58:36;15.50;99.90
780;DHT22;373;49.342;8.146;2023-04-24T13:01:03;15.50;99.90
780;DHT22;373;49.342;8.146;2023-04-24T13:03:30;15.20;99.90
780;DHT22;373;49.342;8.146;2023-04-24T13:05:57;15.20;99.90
780;DHT22;373;49.342;8.146;2023-04-24T13:08:24;14.80;99.90
780;DHT22;373;49.342;8.146;2023-04-24T13:10:52;14.90;99.90
780;DHT22;373;49.342;8.146;2023-04-24T13:13:19;14.70;99.90
780;DHT22;373;49.342;8.146;2023-04-24T13:15:46;14.70;99.90
780;DHT22;373;49.342;8.146;2023-04-24T13:18:13;14.70;99.90
780;DHT22;373;49.342;8.146;2023-04-24T13:20:40;14.90;99.90
780;DHT22;373;49.342;8.146;2023-04-24T13:23:08;15.30;99.90
780;DHT22;373;49.342;8.146;2023-04-24T13:25:36;15.00;99.90
780;DHT22;373;49.342;8.146;2023-04-24T13:28:06;14.90;99.90
780;DHT22;373;49.342;8.146;2023-04-24T13:30:33;14.70;99.90
780;DHT22;373;49.342;8.146;2023-04-24T13:33:00;14.60;99.90
780;DHT22;373;49.342;8.146;2023-04-24T13:35:27;14.70;99.90
780;DHT22;373;49.342;8.146;2023-04-24T13:37:54;14.90;99.90
780;DHT22;373;49.342;8.146;2023-04-24T13:40:22;15.00;99.90
780;DHT22;373;49.342;8.146;2023-04-24T13:42:49;15.00;99.90
780;DHT22;373;49.342;8.146;2023-04-24T13:45:17;15.20;99.90
780;DHT22;373;49.342;8.146;2023-04-24T13:47:45;14.50;99.90
780;DHT22;373;49.342;8.146;2023-04-24T13:50:12;14.40;99.90
780;DHT22;373;49.342;8.146;2023-04-24T13:52:39;14.70;99.90
780;DHT22;373;49.342;8.146;2023-04-24T13:55:07;15.10;99.90
780;DHT22;373;49.342;8.146;2023-04-24T13:57:34;15.20;99.90
780;DHT22;373;49.342;8.146;2023-04-24T14:00:01;14.80;99.90
780;DHT22;373;49.342;8.146;2023-04-24T14:02:34;14.30;99.90
780;DHT22;373;49.342;8.146;2023-04-24T14:05:01;14.20;99.90
780;DHT22;373;49.342;8.146;2023-04-24T14:07:29;14.00;99.90
780;DHT22;373;49.342;8.146;2023-04-24T14:09:56;13.70;1.00
780;DHT22;373;49.342;8.146;2023-04-24T14:12:23;13.40;1.00
780;DHT22;373;49.342;8.146;2023-04-24T14:14:51;13.00;1.00
780;DHT22;373;49.342;8.146;2023-04-24T14:17:18;13.10;1.00
780;DHT22;373;49.342;8.146;2023-04-24T14:19:47;13.10;1.00
780;DHT22;373;49.342;8.146;2023-04-24T14:22:14;13.40;99.90
780;DHT22;373;49.342;8.146;2023-04-24T14:24:41;13.80;1.00
780;DHT22;373;49.342;8.146;2023-04-24T14:27:08;14.10;1.00
780;DHT22;373;49.342;8.146;2023-04-24T14:29:35;14.30;99.90
780;DHT22;373;49.342;8.146;2023-04-24T14:32:02;14.30;14.20
780;DHT22;373;49.342;8.146;2023-04-24T14:34:29;14.40;1.00
780;DHT22;373;49.342;8.146;2023-04-24T14:36:58;14.80;29.60
780;DHT22;373;49.342;8.146;2023-04-24T14:39:25;15.30;1.00
780;DHT22;373;49.342;8.146;2023-04-24T14:41:52;15.20;1.00
780;DHT22;373;49.342;8.146;2023-04-24T14:44:19;14.20;1.00
780;DHT22;373;49.342;8.146;2023-04-24T14:46:47;13.80;1.00
780;DHT22;373;49.342;8.146;2023-04-24T14:49:15;13.70;12.80
780;DHT22;373;49.342;8.146;2023-04-24T14:51:42;13.70;1.00
780;DHT22;373;49.342;8.146;2023-04-24T14:54:10;13.40;1.00
780;DHT22;373;49.342;8.146;2023-04-24T14:56:38;13.30;1.00
780;DHT22;373;49.342;8.146;2023-04-24T15:01:59;13.70;1.00
780;DHT22;373;49.342;8.146;2023-04-24T15:04:27;13.90;1.00
780;DHT22;373;49.342;8.146;2023-04-24T15:06:55;13.70;1.00
780;DHT22;373;49.342;8.146;2023-04-24T15:09:24;13.60;1.00
780;DHT22;373;49.342;8.146;2023-04-24T15:11:53;13.60;1.00
780;DHT22;373;49.342;8.146;2023-04-24T15:14:20;13.50;1.00
780;DHT22;373;49.342;8.146;2023-04-24T15:16:47;13.40;1.00
780;DHT22;373;49.342;8.146;2023-04-24T15:19:14;13.40;1.00
780;DHT22;373;49.342;8.146;2023-04-24T15:21:41;13.50;1.00
780;DHT22;373;49.342;8.146;2023-04-24T15:24:10;13.80;1.00
780;DHT22;373;49.342;8.146;2023-04-24T15:26:38;13.80;99.90
780;DHT22;373;49.342;8.146;2023-04-24T15:29:05;13.80;99.90
780;DHT22;373;49.342;8.146;2023-04-24T15:31:32;14.10;99.90
780;DHT22;373;49.342;8.146;2023-04-24T15:34:00;13.90;1.00
780;DHT22;373;49.342;8.146;2023-04-24T15:36:27;13.80;1.00
780;DHT22;373;49.342;8.146;2023-04-24T15:38:54;13.90;1.00
780;DHT22;373;49.342;8.146;2023-04-24T15:41:21;13.70;1.00
780;DHT22;373;49.342;8.146;2023-04-24T15:43:49;13.70;78.20
780;DHT22;373;49.342;8.146;2023-04-24T15:46:16;13.80;99.90
780;DHT22;373;49.342;8.146;2023-04-24T15:48:44;13.70;99.90
780;DHT22;373;49.342;8.146;2023-04-24T15:51:11;13.70;1.00
780;DHT22;373;49.342;8.146;2023-04-24T15:53:38;13.60;99.90
780;DHT22;373;49.342;8.146;2023-04-24T15:56:05;13.60;1.00
780;DHT22;373;49.342;8.146;2023-04-24T15:58:32;13.70;99.90
780;DHT22;373;49.342;8.146;2023-04-24T16:01:01;13.80;99.90
780;DHT22;373;49.342;8.146;2023-04-24T16:03:28;13.80;99.90
780;DHT22;373;49.342;8.146;2023-04-24T16:05:55;13.70;89.00
780;DHT22;373;49.342;8.146;2023-04-24T16:08:22;13.50;27.90
780;DHT22;373;49.342;8.146;2023-04-24T16:10:50;13.60;28.00
780;DHT22;373;49.342;8.146;2023-04-24T16:13:17;13.50;1.00
780;DHT22;373;49.342;8.146;2023-04-24T16:15:44;13.30;1.00
780;DHT22;373;49.342;8.146;2023-04-24T16:18:14;13.20;1.00
780;DHT22;373;49.342;8.146;2023-04-24T16:20:42;13.10;1.00
780;DHT22;373;49.342;8.146;2023-04-24T16:23:09;13.00;1.00
780;DHT22;373;49.342;8.146;2023-04-24T16:25:36;13.00;1.00
780;DHT22;373;49.342;8.146;2023-04-24T16:28:03;13.10;1.00
780;DHT22;373;49.342;8.146;2023-04-24T16:30:31;13.00;1.00
780;DHT22;373;49.342;8.146;2023-04-24T16:32:58;13.10;1.00
780;DHT22;373;49.342;8.146;2023-04-24T16:35:26;13.30;1.00
780;DHT22;373;49.342;8.146;2023-04-24T16:37:53;13.20;1.00
780;DHT22;373;49.342;8.146;2023-04-24T16:40:21;13.40;1.00
780;DHT22;373;49.342;8.146;2023-04-24T16:42:48;13.30;1.00
780;DHT22;373;49.342;8.146;2023-04-24T16:45:16;13.30;1.00
780;DHT22;373;49.342;8.146;2023-04-24T16:47:43;13.30;1.00
780;DHT22;373;49.342;8.146;2023-04-24T16:50:10;13.30;1.00
780;DHT22;373;49.342;8.146;2023-04-24T16:52:39;13.20;1.00
780;DHT22;373;49.342;8.146;2023-04-24T16:55:07;13.20;1.00
780;DHT22;373;49.342;8.146;2023-04-24T16:57:35;12.90;1.00